CYHU/YHU METAR and TAF weather

Enter ICAO airport designator
Station Type Date Time Source
CYHU METAR 2020/06/06 21:00 UTC NOAA

CYHU 062100Z AUTO 30010G15KT 9SM FEW130 BKN150 BKN170 21/12 A2972 RMK SLP064 DENSITY ALT 1000FT


Station Type Date Time Source
CYHU Decoded METAR 2020/06/06 21:00 UTC NOAA

Saint Hubert Airport , Canada (CYHU) 45-31N 073-25W
Jun 06, 2020 - 05:00 PM EDT / 2020.06.06 2100 UTC
Wind: from the WNW (300 degrees) at 12 MPH (10 KT) gusting to 17 MPH (15 KT):0
Visibility: 9 mile(s):0
Sky conditions: mostly cloudy
Temperature: 69 F (21 C)
Dew Point: 53 F (12 C)
Relative Humidity: 56%
Pressure (altimeter): 29.72 in. Hg (1006 hPa)
ob: CYHU 062100Z AUTO 30010G15KT 9SM FEW130 BKN150 BKN170 21/12 A2972 RMK SLP064 DENSITY ALT 1000FT
cycle: 21

Station Type Date Time Source
CYHU TAF 2020/06/06 20:42 UTC NOAA

TAF TAF
AMD CYHU 062039Z 0620/0718 30010G20KT P6SM BKN040
TEMPO 0620/0702 P6SM -SHRA PROB30 0620/0701 VRB15G30KT 2SM TSRA BR BKN020 OVC050CB
FM070200 36010KT P6SM BKN040 BKN080
TEMPO 0702/0704 P6SM -SHRA
FM070400 36010KT P6SM BKN050
FM071500 35010KT P6SM BKN060
RMK FCST BASED ON AUTO OBS. NXT FCST BY 070000Z

Example: see airport list